Time;durP1;ratioP1;P1;durP2;ratioP2;P2;SDS_P1;SDS_P2;PMS_P1;PMS_P2;Temp;Humidity;BMP_temperature;BMP_pressure;BME280_temperature;BME280_humidity;BME280_pressure;Samples;Min_cycle;Max_cycle;Signal;HPM_P1;HPM_P2
2021/07/15 00:01:18;;;;;;;7.95;6.03;;;17.20;96.00;;;;;;5007377;28;20037;-80
2021/07/15 00:03:43;;;;;;;6.70;4.78;;;17.10;96.30;;;;;;5009198;28;20026;-80
2021/07/15 00:06:10;;;;;;;6.38;5.72;;;17.10;96.00;;;;;;5003804;28;20037;-79
2021/07/15 00:08:35;;;;;;;4.90;4.38;;;17.10;95.90;;;;;;5007890;28;20305;-80
2021/07/15 00:11:10;;;;;;;2.45;1.90;;;17.00;95.90;;;;;;5008932;28;20450;-80
2021/07/15 00:13:35;;;;;;;8.32;3.65;;;17.00;96.10;;;;;;5012823;28;20487;-80
2021/07/15 00:16:06;;;;;;;7.60;3.70;;;16.90;96.20;;;;;;5008169;28;20025;-80
2021/07/15 00:18:35;;;;;;;5.78;4.03;;;16.80;96.00;;;;;;5009071;28;20037;-80
2021/07/15 00:21:04;;;;;;;4.10;3.70;;;16.80;96.00;;;;;;5008270;28;20029;-80
2021/07/15 00:23:29;;;;;;;8.38;3.15;;;16.80;96.20;;;;;;5006331;28;20030;-80
2021/07/15 00:25:55;;;;;;;4.35;3.88;;;16.80;96.50;;;;;;5008089;28;20032;-80
2021/07/15 00:28:21;;;;;;;6.57;3.45;;;16.80;96.40;;;;;;5005601;28;20493;-80
2021/07/15 00:30:46;;;;;;;5.45;3.78;;;16.80;96.30;;;;;;5007921;28;20026;-80
2021/07/15 00:33:12;;;;;;;5.15;3.15;;;16.70;96.50;;;;;;5008004;28;20022;-80
2021/07/15 00:35:38;;;;;;;5.50;3.08;;;16.70;96.60;;;;;;5007844;28;20053;-80
2021/07/15 00:38:05;;;;;;;4.07;2.70;;;16.70;96.90;;;;;;5005074;28;20449;-80
2021/07/15 00:40:32;;;;;;;6.03;2.65;;;16.70;96.90;;;;;;5009423;28;20063;-80
2021/07/15 00:42:58;;;;;;;4.95;3.15;;;16.70;96.90;;;;;;5008558;28;20030;-80
2021/07/15 00:45:24;;;;;;;3.47;2.80;;;16.70;96.80;;;;;;5009039;28;20037;-80
2021/07/15 00:47:49;;;;;;;6.05;2.75;;;16.80;96.80;;;;;;5005380;28;20092;-80
2021/07/15 00:50:18;;;;;;;3.58;2.50;;;16.70;96.80;;;;;;5007591;28;20412;-80
2021/07/15 00:52:44;;;;;;;3.58;2.90;;;16.70;96.80;;;;;;5009229;28;20030;-80
2021/07/15 00:55:16;;;;;;;3.92;2.85;;;16.70;96.90;;;;;;5006573;28;20060;-79
2021/07/15 00:57:43;;;;;;;5.25;2.53;;;16.70;96.90;;;;;;5008576;28;20021;-80
2021/07/15 01:00:10;;;;;;;3.00;2.25;;;16.80;96.90;;;;;;5007060;28;20168;-80
2021/07/15 01:02:36;;;;;;;4.82;2.63;;;16.70;96.90;;;;;;5005918;28;20033;-78
2021/07/15 01:05:10;;;;;;;3.60;2.70;;;16.70;96.90;;;;;;5006808;28;20034;-78
2021/07/15 01:07:36;;;;;;;6.07;2.72;;;16.70;96.90;;;;;;5008380;28;20038;-78
2021/07/15 01:10:03;;;;;;;5.95;2.58;;;16.70;97.00;;;;;;5009360;28;20052;-77
2021/07/15 01:12:59;;;;;;;5.75;2.60;;;16.70;97.00;;;;;;5013685;28;20481;-77
2021/07/15 01:15:34;;;;;;;2.67;2.47;;;16.70;97.00;;;;;;5013481;28;20034;-77
2021/07/15 01:18:38;;;;;;;4.45;2.55;;;16.60;97.10;;;;;;5009848;28;20480;-77
2021/07/15 01:21:11;;;;;;;3.88;2.97;;;16.60;97.10;;;;;;5010437;28;20029;-77
2021/07/15 01:24:17;;;;;;;6.28;3.33;;;16.70;97.20;;;;;;5011348;28;20026;-77
2021/07/15 01:27:08;;;;;;;6.90;3.55;;;16.60;97.40;;;;;;5009437;28;20030;-77
2021/07/15 01:29:57;;;;;;;7.28;4.00;;;16.60;97.20;;;;;;5010195;28;20022;-77
2021/07/15 01:32:27;;;;;;;7.00;3.53;;;16.70;97.10;;;;;;5002880;28;20033;-77
2021/07/15 01:34:56;;;;;;;3.60;2.75;;;16.60;97.10;;;;;;5009075;28;20393;-78
2021/07/15 01:37:22;;;;;;;4.25;3.67;;;16.60;97.20;;;;;;5011731;28;20037;-78
2021/07/15 01:39:50;;;;;;;5.32;3.63;;;16.60;97.20;;;;;;5009694;28;20543;-78
2021/07/15 01:42:18;;;;;;;6.57;2.58;;;16.50;97.20;;;;;;5011218;28;20789;-77
2021/07/15 01:44:44;;;;;;;3.88;2.60;;;16.60;97.30;;;;;;5011369;28;20034;-77
2021/07/15 01:47:10;;;;;;;5.25;2.92;;;16.50;97.20;;;;;;5008927;28;20048;-77
2021/07/15 01:49:37;;;;;;;4.75;3.45;;;16.40;97.20;;;;;;5010235;28;20048;-77
2021/07/15 01:52:03;;;;;;;3.97;2.55;;;16.50;97.20;;;;;;5009700;28;20057;-77
2021/07/15 01:54:29;;;;;;;4.05;3.67;;;16.40;97.20;;;;;;5011791;28;20083;-77
2021/07/15 01:56:56;;;;;;;5.68;4.15;;;16.40;97.10;;;;;;5010829;28;20380;-78
2021/07/15 01:59:29;;;;;;;10.88;5.15;;;16.40;97.10;;;;;;5010081;28;20018;-77
2021/07/15 02:01:57;;;;;;;8.50;4.32;;;16.40;97.00;;;;;;5010603;28;20120;-77
2021/07/15 02:04:24;;;;;;;8.25;3.30;;;16.40;97.10;;;;;;5009766;28;20084;-77
2021/07/15 02:06:53;;;;;;;4.07;3.22;;;16.30;97.10;;;;;;5011482;28;20392;-77
2021/07/15 02:09:19;;;;;;;6.20;2.67;;;16.30;97.10;;;;;;5003971;28;20488;-77
2021/07/15 02:11:48;;;;;;;5.93;3.45;;;16.20;97.10;;;;;;5011864;28;20045;-77
2021/07/15 02:14:14;;;;;;;5.80;3.42;;;16.10;97.20;;;;;;5008937;28;20022;-77
2021/07/15 02:16:43;;;;;;;6.97;2.25;;;16.00;97.00;;;;;;5012040;28;20029;-77
2021/07/15 02:19:09;;;;;;;6.18;2.40;;;16.00;97.20;;;;;;5006887;28;20076;-77
2021/07/15 02:21:36;;;;;;;6.63;2.88;;;16.00;97.30;;;;;;5008645;28;20045;-77
2021/07/15 02:24:04;;;;;;;7.35;2.67;;;15.90;97.30;;;;;;5010421;28;20113;-77
2021/07/15 02:26:31;;;;;;;8.35;2.42;;;15.90;97.30;;;;;;5010746;28;20018;-77
2021/07/15 02:28:58;;;;;;;5.55;3.53;;;15.90;97.40;;;;;;5010228;28;20121;-77
2021/07/15 02:31:43;;;;;;;9.90;4.75;;;16.00;97.40;;;;;;5011115;28;20034;-77
2021/07/15 02:34:18;;;;;;;4.03;3.03;;;16.00;97.40;;;;;;5009277;28;20124;-77
2021/07/15 02:36:44;;;;;;;5.50;2.83;;;16.00;97.50;;;;;;5004502;28;20033;-77
2021/07/15 02:39:11;;;;;;;10.00;3.40;;;16.00;97.50;;;;;;5006752;28;20112;-77
2021/07/15 02:41:37;;;;;;;5.68;2.20;;;16.00;97.60;;;;;;5011435;28;20045;-77
2021/07/15 02:44:03;;;;;;;9.45;2.60;;;16.00;97.40;;;;;;5010052;28;20466;-77
2021/07/15 02:46:29;;;;;;;8.80;2.50;;;16.00;97.40;;;;;;5011109;28;20117;-77
2021/07/15 02:48:55;;;;;;;12.40;2.85;;;16.00;97.40;;;;;;5008473;28;20025;-77
2021/07/15 02:51:21;;;;;;;6.20;2.58;;;16.00;97.40;;;;;;5009203;28;20088;-77
2021/07/15 02:53:47;;;;;;;6.15;1.75;;;16.00;97.40;;;;;;5009346;28;20030;-77
2021/07/15 02:56:22;;;;;;;11.93;4.07;;;15.90;97.40;;;;;;5011626;28;20018;-77
2021/07/15 02:59:01;;;;;;;8.23;3.17;;;15.90;97.50;;;;;;5010702;28;20057;-77
2021/07/15 03:01:32;;;;;;;5.93;2.95;;;15.80;97.50;;;;;;5015137;28;20038;-77
2021/07/15 03:04:11;;;;;;;5.60;3.00;;;15.80;97.50;;;;;;5010391;28;20034;-77
2021/07/15 03:06:41;;;;;;;6.57;3.00;;;15.80;97.60;;;;;;5011161;28;20029;-77
2021/07/15 03:09:13;;;;;;;11.38;2.97;;;15.80;97.70;;;;;;5009746;28;20045;-77
2021/07/15 03:11:45;;;;;;;4.28;2.70;;;15.80;97.60;;;;;;5009361;28;20022;-77
2021/07/15 03:14:13;;;;;;;6.20;3.30;;;15.80;97.70;;;;;;5008281;28;20034;-77
2021/07/15 03:16:41;;;;;;;7.20;2.17;;;15.80;97.70;;;;;;5010051;28;20532;-77
2021/07/15 03:19:08;;;;;;;5.07;3.05;;;15.80;97.70;;;;;;5006051;28;20034;-77
2021/07/15 03:21:37;;;;;;;6.95;1.90;;;15.80;97.60;;;;;;5010009;28;20037;-77
2021/07/15 03:24:04;;;;;;;9.63;3.35;;;15.80;97.60;;;;;;5009255;28;20037;-78
2021/07/15 03:26:31;;;;;;;14.13;3.17;;;15.80;97.70;;;;;;5008320;28;20026;-78
2021/07/15 03:28:58;;;;;;;4.28;2.47;;;15.80;97.60;;;;;;5008822;28;20704;-77
2021/07/15 03:31:24;;;;;;;7.13;2.20;;;15.80;97.60;;;;;;5008381;28;20029;-77
2021/07/15 03:33:51;;;;;;;7.00;2.38;;;15.70;97.50;;;;;;5008167;28;20021;-77
2021/07/15 03:36:17;;;;;;;7.18;2.22;;;15.70;97.50;;;;;;5008769;28;20026;-77
2021/07/15 03:38:45;;;;;;;9.18;3.90;;;15.70;97.50;;;;;;5008370;28;21950;-77
2021/07/15 03:41:12;;;;;;;9.23;2.42;;;15.70;97.50;;;;;;5009101;28;20038;-77
2021/07/15 03:43:39;;;;;;;8.50;2.78;;;15.70;97.50;;;;;;5008493;28;20105;-77
2021/07/15 03:46:05;;;;;;;8.45;2.72;;;15.70;97.50;;;;;;5009290;28;20448;-77
2021/07/15 03:48:32;;;;;;;9.13;3.00;;;15.60;97.50;;;;;;5006048;28;20022;-77
2021/07/15 03:51:00;;;;;;;9.63;2.75;;;15.70;97.50;;;;;;5008227;28;20022;-77
2021/07/15 03:53:27;;;;;;;4.95;2.85;;;15.60;97.50;;;;;;5009119;28;20053;-77
2021/07/15 03:55:55;;;;;;;6.60;3.78;;;15.60;97.50;;;;;;5006594;28;20113;-77
2021/07/15 03:58:21;;;;;;;8.25;3.95;;;15.60;97.50;;;;;;5008140;28;20029;-77
2021/07/15 04:00:48;;;;;;;15.45;4.63;;;15.70;97.40;;;;;;5006130;28;20553;-77
2021/07/15 04:03:21;;;;;;;6.22;2.67;;;15.80;97.40;;;;;;5009197;28;20034;-77
2021/07/15 04:05:49;;;;;;;15.00;9.27;;;16.20;97.30;;;;;;5009983;28;20029;-77
2021/07/15 04:08:17;;;;;;;13.88;3.67;;;16.40;97.00;;;;;;5006939;28;20116;-78
2021/07/15 04:10:45;;;;;;;5.70;2.35;;;16.60;96.80;;;;;;5023968;28;20029;-77
2021/07/15 04:13:13;;;;;;;11.13;3.83;;;16.90;96.50;;;;;;5007513;28;20032;-77
2021/07/15 04:16:12;;;;;;;15.93;3.47;;;17.30;96.40;;;;;;5008542;28;20029;-77
2021/07/15 04:18:39;;;;;;;9.00;2.30;;;17.70;95.70;;;;;;5014693;28;20064;-77
2021/07/15 04:21:06;;;;;;;12.98;3.28;;;18.00;95.40;;;;;;5025165;28;20161;-77
2021/07/15 04:23:33;;;;;;;10.65;2.80;;;18.10;94.80;;;;;;5008015;28;20030;-77
2021/07/15 04:25:59;;;;;;;8.32;3.65;;;18.40;94.60;;;;;;5008006;28;20030;-77
2021/07/15 04:28:26;;;;;;;4.97;2.40;;;18.60;94.20;;;;;;5004205;28;20428;-77
2021/07/15 04:30:55;;;;;;;8.57;2.45;;;18.80;93.50;;;;;;4997314;28;20088;-76
2021/07/15 04:33:22;;;;;;;7.05;2.53;;;18.90;93.40;;;;;;5008013;28;20033;-76
2021/07/15 04:35:47;;;;;;;11.25;3.28;;;19.20;93.60;;;;;;5007772;28;20022;-76
2021/07/15 04:38:14;;;;;;;8.45;1.88;;;19.60;93.30;;;;;;5006208;28;20029;-76
2021/07/15 04:40:39;;;;;;;7.05;1.65;;;20.00;92.60;;;;;;5000973;28;20025;-76
2021/07/15 04:43:08;;;;;;;6.65;2.13;;;20.40;92.00;;;;;;5007552;28;20065;-76
2021/07/15 04:45:38;;;;;;;11.45;2.95;;;20.70;91.40;;;;;;5009757;28;20049;-76
2021/07/15 04:48:06;;;;;;;6.78;1.98;;;21.00;90.70;;;;;;5005730;28;20053;-76
2021/07/15 04:50:34;;;;;;;6.55;1.52;;;21.20;90.30;;;;;;5009404;28;20461;-76
2021/07/15 04:53:07;;;;;;;10.02;2.20;;;21.40;90.20;;;;;;5002241;28;20044;-77
2021/07/15 04:55:34;;;;;;;6.25;1.88;;;21.70;89.10;;;;;;5008329;28;20036;-76
2021/07/15 04:58:03;;;;;;;8.55;2.08;;;21.90;87.40;;;;;;5007976;28;20420;-76
2021/07/15 05:00:29;;;;;;;8.63;2.03;;;22.20;86.60;;;;;;5008144;28;20018;-77
2021/07/15 05:03:08;;;;;;;9.98;1.70;;;22.60;86.40;;;;;;5008336;28;20033;-77
2021/07/15 05:05:34;;;;;;;11.13;1.67;;;22.70;85.70;;;;;;5008074;28;20030;-77
2021/07/15 05:08:00;;;;;;;6.43;2.15;;;22.90;83.10;;;;;;5008140;28;20044;-77
2021/07/15 05:10:26;;;;;;;8.70;1.30;;;23.10;83.20;;;;;;5005722;28;20493;-76
2021/07/15 05:12:51;;;;;;;13.18;2.53;;;23.20;81.80;;;;;;5009839;28;20080;-77
2021/07/15 05:15:17;;;;;;;9.77;3.00;;;23.40;81.40;;;;;;5008485;28;20030;-76
2021/07/15 05:17:42;;;;;;;14.68;2.63;;;23.70;81.20;;;;;;5009050;28;20026;-76
2021/07/15 05:20:09;;;;;;;4.95;1.20;;;23.90;79.80;;;;;;5004894;28;20057;-77
2021/07/15 05:22:36;;;;;;;13.77;3.00;;;24.10;79.40;;;;;;5003625;28;20018;-79
2021/07/15 05:25:03;;;;;;;10.40;1.73;;;24.30;77.40;;;;;;5006024;28;20037;-78
2021/07/15 05:27:31;;;;;;;8.90;2.45;;;24.30;77.40;;;;;;5007700;28;20040;-80
2021/07/15 05:29:56;;;;;;;6.03;1.60;;;24.30;76.10;;;;;;5005207;28;20431;-80
2021/07/15 05:32:22;;;;;;;15.75;1.85;;;24.40;76.70;;;;;;5006390;28;21283;-80
2021/07/15 05:34:47;;;;;;;16.25;3.70;;;24.70;76.00;;;;;;5003213;28;20110;-80
2021/07/15 05:37:13;;;;;;;9.70;2.55;;;24.90;74.70;;;;;;5008876;28;20548;-80
2021/07/15 05:39:39;;;;;;;13.57;5.00;;;25.20;74.30;;;;;;5006580;28;20034;-80
2021/07/15 05:42:05;;;;;;;11.70;4.63;;;25.20;73.40;;;;;;5006623;28;20411;-80
2021/07/15 05:44:30;;;;;;;9.45;3.50;;;25.30;73.70;;;;;;5008479;28;20485;-79
2021/07/15 05:46:56;;;;;;;16.60;7.32;;;25.20;72.90;;;;;;5008999;28;20041;-80
2021/07/15 05:49:21;;;;;;;9.93;2.35;;;24.70;73.40;;;;;;5005866;28;20033;-80
2021/07/15 05:51:48;;;;;;;8.45;4.28;;;24.10;73.90;;;;;;5007505;28;20850;-80
2021/07/15 05:54:15;;;;;;;10.00;2.67;;;23.40;75.20;;;;;;5007356;28;20060;-80
2021/07/15 05:56:40;;;;;;;22.33;9.75;;;23.10;76.70;;;;;;5011358;28;20049;-79
2021/07/15 05:59:06;;;;;;;11.98;6.30;;;23.00;77.50;;;;;;5011961;28;20479;-79
2021/07/15 06:01:31;;;;;;;10.50;3.92;;;23.20;77.40;;;;;;5010480;28;20388;-79
2021/07/15 06:03:57;;;;;;;10.13;3.72;;;23.10;77.20;;;;;;5011387;28;20038;-79
2021/07/15 06:06:22;;;;;;;8.73;2.60;;;23.10;77.30;;;;;;5010050;28;20034;-79
2021/07/15 06:08:48;;;;;;;10.02;4.15;;;23.10;78.20;;;;;;5009892;28;20061;-79
2021/07/15 06:11:14;;;;;;;5.35;3.17;;;23.20;77.70;;;;;;5005485;28;20025;-80
2021/07/15 06:13:39;;;;;;;9.30;3.20;;;23.30;77.60;;;;;;5010283;28;20018;-79
2021/07/15 06:16:05;;;;;;;9.48;4.00;;;23.30;77.90;;;;;;5012044;28;20026;-79
2021/07/15 06:18:31;;;;;;;8.20;2.85;;;23.30;77.60;;;;;;5010008;28;20037;-80
2021/07/15 06:20:56;;;;;;;11.75;3.97;;;23.00;79.30;;;;;;5010645;28;20040;-80
2021/07/15 06:23:25;;;;;;;10.30;3.85;;;22.70;78.90;;;;;;5009096;28;20035;-79
2021/07/15 06:25:50;;;;;;;9.10;3.97;;;22.70;79.60;;;;;;5010989;28;20026;-79
2021/07/15 06:28:16;;;;;;;10.18;3.85;;;22.70;80.20;;;;;;5005373;28;20674;-78
2021/07/15 06:30:41;;;;;;;4.75;2.63;;;22.70;80.40;;;;;;5007737;28;20037;-81
2021/07/15 06:33:07;;;;;;;8.32;1.63;;;22.90;80.00;;;;;;5009305;28;20030;-81
2021/07/15 06:35:39;;;;;;;6.10;2.42;;;23.10;79.50;;;;;;5010015;28;20104;-82
2021/07/15 06:38:05;;;;;;;5.15;1.80;;;23.40;79.70;;;;;;5008946;28;20032;-82
2021/07/15 06:40:31;;;;;;;5.45;2.50;;;23.40;79.00;;;;;;5009302;28;20285;-81
2021/07/15 06:42:56;;;;;;;6.50;2.85;;;23.30;78.40;;;;;;5009635;28;20501;-81
2021/07/15 06:45:22;;;;;;;9.70;3.13;;;23.20;78.60;;;;;;5012051;28;20034;-81
2021/07/15 06:47:47;;;;;;;9.13;3.42;;;23.20;78.80;;;;;;5009625;28;20033;-81
2021/07/15 06:50:15;;;;;;;8.50;3.75;;;23.20;79.00;;;;;;5009445;28;20033;-74
2021/07/15 06:52:41;;;;;;;7.05;3.17;;;23.20;79.00;;;;;;5010121;28;20481;-81
2021/07/15 06:55:08;;;;;;;8.90;3.05;;;23.20;79.30;;;;;;5009226;28;20041;-81
2021/07/15 06:57:34;;;;;;;11.13;3.85;;;23.10;79.40;;;;;;5008809;28;20120;-77
2021/07/15 07:00:01;;;;;;;13.82;3.38;;;23.10;79.30;;;;;;5009568;28;20075;-76
2021/07/15 07:02:26;;;;;;;8.35;3.33;;;23.20;79.60;;;;;;5034596;23;20050;-76
2021/07/15 07:04:52;;;;;;;13.07;4.15;;;23.30;79.80;;;;;;5010125;28;20083;-75
2021/07/15 07:07:18;;;;;;;11.32;2.70;;;23.50;79.40;;;;;;5024774;28;20431;-76
2021/07/15 07:09:43;;;;;;;10.45;3.72;;;23.60;79.30;;;;;;5008101;28;20022;-77
2021/07/15 07:12:09;;;;;;;7.93;3.22;;;23.50;78.80;;;;;;5009087;28;20515;-75
2021/07/15 07:14:35;;;;;;;7.97;2.63;;;23.30;79.00;;;;;;5008824;28;20539;-75
2021/07/15 07:17:00;;;;;;;10.27;4.45;;;23.30;80.00;;;;;;5009341;28;20025;-76
2021/07/15 07:19:26;;;;;;;6.65;3.15;;;23.40;79.50;;;;;;5009178;28;20029;-76
2021/07/15 07:21:51;;;;;;;8.73;3.10;;;23.30;78.60;;;;;;5010491;28;20036;-76
2021/07/15 07:24:17;;;;;;;9.38;4.03;;;23.30;79.10;;;;;;5005530;28;20485;-76
2021/07/15 07:26:42;;;;;;;7.07;3.13;;;23.30;79.20;;;;;;5009341;28;20147;-77
2021/07/15 07:29:08;;;;;;;8.35;2.50;;;23.30;78.60;;;;;;5007277;28;20033;-78
2021/07/15 07:31:33;;;;;;;11.48;3.75;;;23.20;79.10;;;;;;5009675;28;20030;-77
2021/07/15 07:33:59;;;;;;;9.82;3.20;;;23.20;79.10;;;;;;5008015;28;20469;-77
2021/07/15 07:36:25;;;;;;;6.70;3.28;;;23.20;79.60;;;;;;5008265;28;20285;-79
2021/07/15 07:38:51;;;;;;;14.60;3.63;;;23.40;78.80;;;;;;5009004;28;20040;-78
2021/07/15 07:41:16;;;;;;;9.30;2.80;;;23.50;79.10;;;;;;5009118;28;20053;-78
2021/07/15 07:43:42;;;;;;;6.25;2.92;;;23.60;78.50;;;;;;5007940;28;20384;-75
2021/07/15 07:46:07;;;;;;;7.32;2.85;;;23.70;78.30;;;;;;5008609;28;20029;-75
2021/07/15 07:48:33;;;;;;;7.57;2.75;;;23.70;78.20;;;;;;5009010;28;20041;-75
2021/07/15 07:50:58;;;;;;;5.00;2.15;;;23.80;77.70;;;;;;5007919;28;20026;-77
2021/07/15 07:53:26;;;;;;;10.02;2.92;;;23.80;77.60;;;;;;5006048;28;20030;-78
2021/07/15 07:55:52;;;;;;;5.10;2.08;;;23.70;76.00;;;;;;5009333;28;20065;-77
2021/07/15 07:58:17;;;;;;;4.85;2.47;;;23.50;77.10;;;;;;5007699;28;20076;-78
2021/07/15 08:00:43;;;;;;;6.43;2.65;;;23.70;78.10;;;;;;5006272;28;20026;-77
2021/07/15 08:03:08;;;;;;;5.47;1.50;;;23.80;78.00;;;;;;5008003;28;20030;-77
2021/07/15 08:05:38;;;;;;;4.60;1.88;;;24.00;77.00;;;;;;5009546;28;20034;-75
2021/07/15 08:08:04;;;;;;;2.65;1.77;;;24.20;76.30;;;;;;5020927;28;20033;-76
2021/07/15 08:10:30;;;;;;;6.95;3.92;;;24.20;76.30;;;;;;5001677;28;20100;-76
2021/07/15 08:12:56;;;;;;;9.57;2.53;;;24.20;75.20;;;;;;5007728;28;20121;-75
2021/07/15 08:15:21;;;;;;;3.65;1.60;;;24.20;75.20;;;;;;5004831;28;20041;-75
2021/07/15 08:17:47;;;;;;;4.10;1.92;;;24.10;74.60;;;;;;5008199;28;20125;-76
2021/07/15 08:20:13;;;;;;;3.50;2.30;;;24.20;75.20;;;;;;5007818;28;20030;-75
2021/07/15 08:22:40;;;;;;;3.60;1.60;;;24.20;74.90;;;;;;5007336;28;20477;-75
2021/07/15 08:25:06;;;;;;;4.95;1.90;;;24.40;75.50;;;;;;5009311;28;20041;-76
2021/07/15 08:27:32;;;;;;;2.20;1.50;;;24.60;75.60;;;;;;5007707;28;20092;-79
2021/07/15 08:29:57;;;;;;;4.60;1.50;;;24.80;73.80;;;;;;5007184;28;20042;-77
2021/07/15 08:32:23;;;;;;;5.72;1.40;;;25.00;74.30;;;;;;5006779;28;20436;-76
2021/07/15 08:34:48;;;;;;;2.47;1.05;;;25.20;73.40;;;;;;5008114;28;20030;-77
2021/07/15 08:37:14;;;;;;;2.17;0.77;;;25.30;72.00;;;;;;5007025;28;20032;-77
2021/07/15 08:39:39;;;;;;;2.63;0.90;;;25.30;72.10;;;;;;5006481;28;20117;-74
2021/07/15 08:42:07;;;;;;;3.17;1.20;;;25.30;72.40;;;;;;5007949;28;20069;-75
2021/07/15 08:44:33;;;;;;;2.15;0.85;;;25.50;71.40;;;;;;5000129;28;20064;-75
2021/07/15 08:47:01;;;;;;;1.48;0.70;;;25.50;70.90;;;;;;5003631;28;20546;-74
2021/07/15 08:49:27;;;;;;;0.65;0.50;;;25.50;68.10;;;;;;5006957;28;20482;-74
2021/07/15 08:51:53;;;;;;;0.55;0.45;;;25.00;68.30;;;;;;5006933;28;20441;-74
2021/07/15 08:54:21;;;;;;;2.13;0.82;;;24.60;69.40;;;;;;5007879;28;20032;-74
2021/07/15 08:56:47;;;;;;;3.95;0.50;;;24.60;71.40;;;;;;5008604;28;20028;-76
2021/07/15 08:59:17;;;;;;;0.85;0.63;;;24.70;70.70;;;;;;5008147;28;20496;-76
2021/07/15 09:01:48;;;;;;;2.75;0.52;;;24.70;70.50;;;;;;5008604;28;20058;-76
2021/07/15 09:04:14;;;;;;;3.70;1.10;;;24.70;71.80;;;;;;5007418;28;20030;-76
2021/07/15 09:06:41;;;;;;;3.20;0.45;;;24.90;71.50;;;;;;5006308;28;20104;-75
2021/07/15 09:09:08;;;;;;;2.60;0.47;;;25.00;70.60;;;;;;5008433;28;20041;-74
2021/07/15 09:11:33;;;;;;;0.70;0.40;;;24.90;69.90;;;;;;5007828;28;20033;-75
2021/07/15 09:13:59;;;;;;;0.80;0.45;;;24.70;69.00;;;;;;5009304;28;20476;-76
2021/07/15 09:16:25;;;;;;;1.45;0.68;;;24.60;70.00;;;;;;5008867;28;20022;-77
2021/07/15 09:19:04;;;;;;;2.85;1.00;;;24.70;70.60;;;;;;5007434;28;20534;-74
2021/07/15 09:21:32;;;;;;;1.20;0.90;;;24.90;70.70;;;;;;5023254;28;20026;-75
2021/07/15 09:24:00;;;;;;;1.02;0.98;;;25.20;71.80;;;;;;5012956;28;20149;-74
2021/07/15 09:26:29;;;;;;;1.17;0.88;;;25.50;70.00;;;;;;5013942;28;20061;-75
2021/07/15 09:29:11;;;;;;;1.65;1.10;;;25.60;69.00;;;;;;5008517;28;20030;-73
2021/07/15 09:31:51;;;;;;;5.90;0.70;;;25.70;69.80;;;;;;5011886;28;20459;-73
2021/07/15 09:34:17;;;;;;;0.75;0.73;;;25.90;68.80;;;;;;5012566;28;20400;-73
2021/07/15 09:36:42;;;;;;;2.78;0.60;;;25.90;69.20;;;;;;5012967;28;20026;-75
2021/07/15 09:39:22;;;;;;;0.70;0.47;;;26.00;68.70;;;;;;5011797;28;20036;-75
2021/07/15 09:42:14;;;;;;;1.45;0.50;;;25.90;67.80;;;;;;5012478;28;20133;-76
2021/07/15 09:44:43;;;;;;;3.65;0.80;;;25.90;68.00;;;;;;5012429;28;20038;-75
2021/07/15 09:47:31;;;;;;;0.50;0.40;;;25.90;67.90;;;;;;5010805;28;20466;-75
2021/07/15 09:49:57;;;;;;;1.20;0.73;;;25.80;67.30;;;;;;5011921;28;20045;-76
2021/07/15 09:52:23;;;;;;;1.30;0.80;;;25.90;68.20;;;;;;5011560;28;20026;-76
2021/07/15 09:54:48;;;;;;;3.25;0.82;;;25.90;67.20;;;;;;5010603;28;20050;-76
2021/07/15 09:57:29;;;;;;;0.70;0.70;;;25.70;66.60;;;;;;5009877;28;20507;-76
2021/07/15 09:59:58;;;;;;;2.95;0.50;;;25.70;66.80;;;;;;5011818;28;20034;-76
2021/07/15 10:02:33;;;;;;;2.50;1.10;;;25.70;66.70;;;;;;5011468;28;20461;-76
2021/07/15 10:04:58;;;;;;;4.22;2.45;;;25.60;67.70;;;;;;5012009;28;20038;-76
2021/07/15 10:07:25;;;;;;;4.95;1.20;;;25.40;66.00;;;;;;5010408;28;20537;-74
2021/07/15 10:10:18;;;;;;;2.70;0.75;;;25.10;65.70;;;;;;5010740;28;20030;-75
2021/07/15 10:12:43;;;;;;;1.95;0.60;;;24.90;66.40;;;;;;5026682;28;20072;-75
2021/07/15 10:15:11;;;;;;;2.35;0.75;;;24.90;66.10;;;;;;5011295;28;20068;-75
2021/07/15 10:17:41;;;;;;;2.03;1.17;;;24.90;66.40;;;;;;5010147;28;20382;-76
2021/07/15 10:20:14;;;;;;;1.13;0.60;;;24.90;67.00;;;;;;5010821;28;20500;-74
2021/07/15 10:22:40;;;;;;;1.67;0.60;;;25.10;67.90;;;;;;5010255;28;20026;-73
2021/07/15 10:25:10;;;;;;;0.77;0.50;;;25.30;67.80;;;;;;5011516;28;20029;-74
2021/07/15 10:27:39;;;;;;;0.85;0.68;;;25.50;67.10;;;;;;5011661;28;20385;-74
2021/07/15 10:30:07;;;;;;;0.80;0.60;;;25.60;67.60;;;;;;5002356;28;20029;-74
2021/07/15 10:32:38;;;;;;;2.08;0.60;;;25.70;67.20;;;;;;5011068;28;20033;-74
2021/07/15 10:35:06;;;;;;;2.42;0.40;;;25.90;66.70;;;;;;5011314;28;20026;-76
2021/07/15 10:37:39;;;;;;;0.50;0.40;;;26.00;66.10;;;;;;5011560;28;20500;-76
2021/07/15 10:40:08;;;;;;;2.53;0.65;;;26.20;65.70;;;;;;5002187;28;20033;-76
2021/07/15 10:42:33;;;;;;;1.42;0.32;;;26.50;67.00;;;;;;5008880;28;20033;-76
2021/07/15 10:44:59;;;;;;;2.05;0.60;;;26.80;65.50;;;;;;5007545;28;20030;-76
2021/07/15 10:47:26;;;;;;;3.42;0.70;;;27.10;65.60;;;;;;5011277;28;20491;-76
2021/07/15 10:49:55;;;;;;;3.38;2.80;;;27.20;63.80;;;;;;5010637;28;20057;-76
2021/07/15 10:52:23;;;;;;;0.47;0.35;;;27.20;64.00;;;;;;5001554;28;20034;-76
2021/07/15 10:54:49;;;;;;;1.80;1.63;;;27.10;64.10;;;;;;5010135;28;20034;-76
2021/07/15 10:57:20;;;;;;;0.50;0.43;;;27.10;64.50;;;;;;5010735;28;20026;-76
2021/07/15 10:59:45;;;;;;;1.65;0.77;;;26.90;62.30;;;;;;5008868;28;20021;-76
2021/07/15 11:02:23;;;;;;;2.15;1.33;;;26.80;63.70;;;;;;5007931;28;20041;-75
2021/07/15 11:04:50;;;;;;;2.13;1.35;;;26.90;63.90;;;;;;5010170;28;20452;-75
2021/07/15 11:07:23;;;;;;;1.42;1.00;;;27.20;63.50;;;;;;5008061;28;20084;-75
2021/07/15 11:09:51;;;;;;;1.25;0.52;;;27.50;63.50;;;;;;5006758;28;20168;-75
2021/07/15 11:12:37;;;;;;;4.97;0.60;;;27.70;61.60;;;;;;5009298;28;20473;-75
2021/07/15 11:15:11;;;;;;;1.27;0.98;;;27.80;62.10;;;;;;5007981;28;20077;-75
2021/07/15 11:17:42;;;;;;;3.60;2.08;;;27.80;62.70;;;;;;5009291;28;20049;-75
2021/07/15 11:20:16;;;;;;;2.13;1.45;;;27.80;62.30;;;;;;5008463;28;20038;-76
2021/07/15 11:23:07;;;;;;;1.10;0.82;;;27.80;61.60;;;;;;5005391;28;20026;-76
2021/07/15 11:25:41;;;;;;;0.80;0.50;;;27.90;62.40;;;;;;5007976;28;20029;-75
2021/07/15 11:28:10;;;;;;;0.93;0.47;;;28.00;60.60;;;;;;5007874;28;20030;-75
2021/07/15 11:30:35;;;;;;;1.10;0.50;;;27.70;58.90;;;;;;5008843;28;20497;-76
2021/07/15 11:33:16;;;;;;;4.15;0.60;;;27.40;60.90;;;;;;5009079;28;20041;-76
2021/07/15 11:35:49;;;;;;;2.15;0.50;;;27.60;60.20;;;;;;5008659;28;20093;-76
2021/07/15 11:38:23;;;;;;;0.50;0.50;;;27.70;59.30;;;;;;5008767;28;20152;-76
2021/07/15 11:40:50;;;;;;;1.65;0.30;;;27.40;57.80;;;;;;5007117;28;20029;-76
2021/07/15 11:43:35;;;;;;;1.60;0.32;;;27.20;58.60;;;;;;5009354;28;20030;-76
2021/07/15 11:46:07;;;;;;;2.50;0.50;;;27.20;58.70;;;;;;5008009;28;20389;-75
2021/07/15 11:48:44;;;;;;;0.63;0.50;;;27.20;59.50;;;;;;5009986;28;20119;-77
2021/07/15 11:51:39;;;;;;;0.50;0.32;;;27.40;58.70;;;;;;5010080;28;20036;-76
2021/07/15 11:54:19;;;;;;;3.00;0.50;;;27.30;57.90;;;;;;4998660;28;20092;-75
2021/07/15 11:56:52;;;;;;;0.90;0.65;;;27.20;59.30;;;;;;5024237;28;20026;-74
2021/07/15 11:59:36;;;;;;;0.93;0.70;;;27.40;59.40;;;;;;5007484;28;20981;-76
2021/07/15 12:02:09;;;;;;;3.13;0.55;;;27.70;59.90;;;;;;5008340;28;20345;-76
2021/07/15 12:05:11;;;;;;;0.95;0.50;;;27.80;57.20;;;;;;5002875;28;20124;-75
2021/07/15 12:07:58;;;;;;;2.63;0.65;;;28.00;58.80;;;;;;4967397;28;20035;-73
2021/07/15 12:10:26;;;;;;;2.55;0.55;;;28.20;57.80;;;;;;5005503;28;20403;-73
2021/07/15 12:12:56;;;;;;;0.43;0.32;;;28.20;57.50;;;;;;5008809;28;20040;-74
2021/07/15 12:15:24;;;;;;;0.75;0.40;;;28.10;58.30;;;;;;5008766;28;20793;-73
2021/07/15 12:17:53;;;;;;;2.28;1.13;;;28.50;57.60;;;;;;5007691;28;20030;-79
2021/07/15 12:20:20;;;;;;;0.90;0.50;;;28.70;59.20;;;;;;5006961;28;20058;-74
2021/07/15 12:22:51;;;;;;;0.98;0.30;;;28.70;57.70;;;;;;5008757;28;20635;-74
2021/07/15 12:25:22;;;;;;;0.68;0.40;;;28.90;56.60;;;;;;5007961;28;20053;-74
2021/07/15 12:27:51;;;;;;;1.92;0.47;;;29.00;55.90;;;;;;5007568;28;20393;-73
2021/07/15 12:30:18;;;;;;;1.02;0.60;;;29.30;56.30;;;;;;5008668;28;20030;-73
2021/07/15 12:33:00;;;;;;;1.48;0.80;;;29.40;55.00;;;;;;5008286;28;20061;-74
2021/07/15 12:35:29;;;;;;;1.83;0.32;;;29.40;55.00;;;;;;5009147;28;20026;-74
2021/07/15 12:37:56;;;;;;;2.60;0.73;;;29.60;55.30;;;;;;5008534;28;20112;-74
2021/07/15 12:40:27;;;;;;;1.10;0.30;;;29.40;54.80;;;;;;5008984;28;20702;-74
2021/07/15 12:42:52;;;;;;;0.65;0.50;;;29.30;55.50;;;;;;5007729;28;20026;-75
2021/07/15 12:45:21;;;;;;;0.35;0.30;;;29.30;54.80;;;;;;5009544;28;20051;-75
2021/07/15 12:48:01;;;;;;;1.65;0.63;;;29.30;55.20;;;;;;5008648;28;20022;-74
2021/07/15 12:50:27;;;;;;;1.13;0.50;;;29.00;53.40;;;;;;5009542;28;20030;-75
2021/07/15 12:53:10;;;;;;;0.57;0.32;;;28.70;53.50;;;;;;5006536;28;20030;-75
2021/07/15 12:55:37;;;;;;;2.03;0.70;;;28.50;54.40;;;;;;5009518;28;20481;-76